Alyeska Resort
Hourly Weather - Base Weather Site
ALY_BASE_HR 10/24/2014
CLICK TO VIEW GRAPH!!

        DATE  TIME   Air  BATT   H2o   H2o   Rel
                    Temp  Volt  Inch Since  Hum%
                      F   AVG   1HR  0600   AVG

  10/24/2014 03:00    26 14.14  0.00  0.00    91
  10/24/2014 02:00    27 14.14  0.00  0.00    91
  10/24/2014 01:00    26 14.15  0.00  0.00    92
  10/23/2014 24:00    26 14.14  0.00  0.00    92
  10/23/2014 23:00    26 14.14  0.00  0.00    91
  10/23/2014 22:00    27 14.13  0.00  0.00    90
  10/23/2014 21:00    27 14.11  0.00  0.00    91
  10/23/2014 20:00    27 14.09  0.00  0.00    89
  10/23/2014 19:00    29 14.04  0.00  0.00    84
  10/23/2014 18:00    32 13.99  0.00  0.00    80
  10/23/2014 17:00    34 13.99  0.00  0.00    78
  10/23/2014 16:00    32 14.03  0.00  0.00    76
  10/23/2014 15:00    31 14.09  0.00  0.00    78
  10/23/2014 14:00    28 14.15  0.00  0.00    86
  10/23/2014 13:00    27 14.17  0.00  0.00    88
  10/23/2014 12:00    25 14.18  0.00  0.00    90
  10/23/2014 11:00    24 14.19  0.00  0.00    90
  10/23/2014 10:00    24 14.20  0.00  0.00    91
  10/23/2014 09:00    23 14.20  0.00  0.00    93
  10/23/2014 08:00    24 14.19  0.00  0.00    92
  10/23/2014 07:00    24 14.18  0.00  0.00    93
  10/23/2014 06:00    24 14.18  0.00  0.00    92
  10/23/2014 05:00    25 14.17  0.00  0.00    91
  10/23/2014 04:00    25 14.17  0.00  0.00    92


CLICK TO VIEW GRAPH!!